sensor_id;sensor_type;location;lat;lon;timestamp;temperature;humidity
8099;DHT22;4092;47.876;9.372;2023-01-15T00:01:37;8.00;99.90
8099;DHT22;4092;47.876;9.372;2023-01-15T00:04:06;8.00;99.90
8099;DHT22;4092;47.876;9.372;2023-01-15T00:06:37;8.00;99.90
8099;DHT22;4092;47.876;9.372;2023-01-15T00:09:05;8.00;99.90
8099;DHT22;4092;47.876;9.372;2023-01-15T00:11:32;8.00;99.90
8099;DHT22;4092;47.876;9.372;2023-01-15T00:13:59;7.90;99.90
8099;DHT22;4092;47.876;9.372;2023-01-15T00:16:27;8.00;99.90
8099;DHT22;4092;47.876;9.372;2023-01-15T00:18:57;7.90;99.90
8099;DHT22;4092;47.876;9.372;2023-01-15T00:21:25;7.90;99.90
8099;DHT22;4092;47.876;9.372;2023-01-15T00:23:54;8.00;99.90
8099;DHT22;4092;47.876;9.372;2023-01-15T00:26:39;8.00;99.90
8099;DHT22;4092;47.876;9.372;2023-01-15T00:29:35;7.90;99.90
8099;DHT22;4092;47.876;9.372;2023-01-15T00:32:05;7.90;99.90
8099;DHT22;4092;47.876;9.372;2023-01-15T00:34:33;7.90;99.90
8099;DHT22;4092;47.876;9.372;2023-01-15T00:37:01;7.90;99.90
8099;DHT22;4092;47.876;9.372;2023-01-15T00:39:29;7.90;99.90
8099;DHT22;4092;47.876;9.372;2023-01-15T00:41:56;7.90;99.90
8099;DHT22;4092;47.876;9.372;2023-01-15T00:44:23;7.90;99.90
8099;DHT22;4092;47.876;9.372;2023-01-15T00:46:50;8.00;99.90
8099;DHT22;4092;47.876;9.372;2023-01-15T00:49:17;8.00;99.90
8099;DHT22;4092;47.876;9.372;2023-01-15T00:51:44;8.00;99.90
8099;DHT22;4092;47.876;9.372;2023-01-15T00:54:12;8.00;99.90
8099;DHT22;4092;47.876;9.372;2023-01-15T00:56:40;8.00;99.90
8099;DHT22;4092;47.876;9.372;2023-01-15T00:59:07;8.10;99.90
8099;DHT22;4092;47.876;9.372;2023-01-15T01:01:34;8.00;99.90
8099;DHT22;4092;47.876;9.372;2023-01-15T01:04:01;8.00;99.90
8099;DHT22;4092;47.876;9.372;2023-01-15T01:06:28;8.00;99.90
8099;DHT22;4092;47.876;9.372;2023-01-15T01:08:55;8.00;99.90
8099;DHT22;4092;47.876;9.372;2023-01-15T01:11:24;8.00;99.90
8099;DHT22;4092;47.876;9.372;2023-01-15T01:13:53;8.00;99.90
8099;DHT22;4092;47.876;9.372;2023-01-15T01:16:27;8.00;99.90
8099;DHT22;4092;47.876;9.372;2023-01-15T01:18:56;8.10;99.90
8099;DHT22;4092;47.876;9.372;2023-01-15T01:21:24;8.00;99.90
8099;DHT22;4092;47.876;9.372;2023-01-15T01:23:51;8.10;99.90
8099;DHT22;4092;47.876;9.372;2023-01-15T01:26:19;8.10;99.90
8099;DHT22;4092;47.876;9.372;2023-01-15T01:28:48;8.00;99.90
8099;DHT22;4092;47.876;9.372;2023-01-15T01:31:17;8.10;99.90
8099;DHT22;4092;47.876;9.372;2023-01-15T01:33:47;8.10;99.90
8099;DHT22;4092;47.876;9.372;2023-01-15T01:36:14;8.10;99.90
8099;DHT22;4092;47.876;9.372;2023-01-15T01:38:41;8.00;99.90
8099;DHT22;4092;47.876;9.372;2023-01-15T01:41:08;8.00;99.90
8099;DHT22;4092;47.876;9.372;2023-01-15T01:43:51;8.00;99.90
8099;DHT22;4092;47.876;9.372;2023-01-15T01:46:20;7.90;99.90
8099;DHT22;4092;47.876;9.372;2023-01-15T01:48:48;7.90;99.90
8099;DHT22;4092;47.876;9.372;2023-01-15T01:51:18;7.90;99.90
8099;DHT22;4092;47.876;9.372;2023-01-15T01:53:46;7.90;99.90
8099;DHT22;4092;47.876;9.372;2023-01-15T01:56:13;7.90;99.90
8099;DHT22;4092;47.876;9.372;2023-01-15T01:58:44;7.80;99.90
8099;DHT22;4092;47.876;9.372;2023-01-15T02:01:13;7.80;99.90
8099;DHT22;4092;47.876;9.372;2023-01-15T02:03:42;7.80;99.90
8099;DHT22;4092;47.876;9.372;2023-01-15T02:06:10;7.80;99.90
8099;DHT22;4092;47.876;9.372;2023-01-15T02:08:37;7.80;99.90
8099;DHT22;4092;47.876;9.372;2023-01-15T02:11:05;7.80;99.90
8099;DHT22;4092;47.876;9.372;2023-01-15T02:13:36;7.70;99.90
8099;DHT22;4092;47.876;9.372;2023-01-15T02:16:09;7.70;99.90
8099;DHT22;4092;47.876;9.372;2023-01-15T02:18:44;7.70;99.90
8099;DHT22;4092;47.876;9.372;2023-01-15T02:21:19;7.70;99.90
8099;DHT22;4092;47.876;9.372;2023-01-15T02:24:16;7.60;99.90
8099;DHT22;4092;47.876;9.372;2023-01-15T02:27:04;7.60;99.90
8099;DHT22;4092;47.876;9.372;2023-01-15T02:29:41;7.60;99.90
8099;DHT22;4092;47.876;9.372;2023-01-15T02:32:15;7.50;99.90
8099;DHT22;4092;47.876;9.372;2023-01-15T02:34:47;7.50;99.90
8099;DHT22;4092;47.876;9.372;2023-01-15T02:37:19;7.50;99.90
8099;DHT22;4092;47.876;9.372;2023-01-15T02:39:48;7.50;99.90
8099;DHT22;4092;47.876;9.372;2023-01-15T02:42:19;7.50;99.90
8099;DHT22;4092;47.876;9.372;2023-01-15T02:44:50;7.50;99.90
8099;DHT22;4092;47.876;9.372;2023-01-15T02:47:21;7.50;99.90
8099;DHT22;4092;47.876;9.372;2023-01-15T02:49:52;7.50;99.90
8099;DHT22;4092;47.876;9.372;2023-01-15T02:52:24;7.40;99.90
8099;DHT22;4092;47.876;9.372;2023-01-15T02:54:55;7.40;99.90
8099;DHT22;4092;47.876;9.372;2023-01-15T02:57:27;7.40;99.90
8099;DHT22;4092;47.876;9.372;2023-01-15T02:59:57;7.40;99.90
8099;DHT22;4092;47.876;9.372;2023-01-15T03:02:31;7.40;99.90
8099;DHT22;4092;47.876;9.372;2023-01-15T03:05:06;7.40;99.90
8099;DHT22;4092;47.876;9.372;2023-01-15T03:07:39;7.40;99.90
8099;DHT22;4092;47.876;9.372;2023-01-15T03:10:09;7.30;99.90
8099;DHT22;4092;47.876;9.372;2023-01-15T03:12:42;7.40;99.90
8099;DHT22;4092;47.876;9.372;2023-01-15T03:15:26;7.30;99.90
8099;DHT22;4092;47.876;9.372;2023-01-15T03:18:14;7.30;99.90
8099;DHT22;4092;47.876;9.372;2023-01-15T03:20:49;7.30;99.90
8099;DHT22;4092;47.876;9.372;2023-01-15T03:23:18;7.30;99.90
8099;DHT22;4092;47.876;9.372;2023-01-15T03:25:48;7.30;99.90
8099;DHT22;4092;47.876;9.372;2023-01-15T03:28:20;7.30;99.90
8099;DHT22;4092;47.876;9.372;2023-01-15T03:30:48;7.20;99.90
8099;DHT22;4092;47.876;9.372;2023-01-15T03:33:16;7.30;99.90
8099;DHT22;4092;47.876;9.372;2023-01-15T03:35:47;7.30;99.90
8099;DHT22;4092;47.876;9.372;2023-01-15T03:38:17;7.20;99.90
8099;DHT22;4092;47.876;9.372;2023-01-15T03:40:51;7.20;99.90
8099;DHT22;4092;47.876;9.372;2023-01-15T03:43:24;7.30;99.90
8099;DHT22;4092;47.876;9.372;2023-01-15T03:46:13;7.30;99.90
8099;DHT22;4092;47.876;9.372;2023-01-15T03:48:45;7.30;99.90
8099;DHT22;4092;47.876;9.372;2023-01-15T03:51:19;7.30;99.90
8099;DHT22;4092;47.876;9.372;2023-01-15T03:53:50;7.30;99.90
8099;DHT22;4092;47.876;9.372;2023-01-15T03:56:27;7.30;99.90
8099;DHT22;4092;47.876;9.372;2023-01-15T03:58:59;7.20;99.90
8099;DHT22;4092;47.876;9.372;2023-01-15T04:01:31;7.30;99.90
8099;DHT22;4092;47.876;9.372;2023-01-15T04:04:00;7.20;99.90
8099;DHT22;4092;47.876;9.372;2023-01-15T04:06:29;7.20;99.90
8099;DHT22;4092;47.876;9.372;2023-01-15T04:08:58;7.20;99.90
8099;DHT22;4092;47.876;9.372;2023-01-15T04:11:26;7.20;99.90
8099;DHT22;4092;47.876;9.372;2023-01-15T04:13:53;7.20;99.90
8099;DHT22;4092;47.876;9.372;2023-01-15T04:16:24;7.20;99.90
8099;DHT22;4092;47.876;9.372;2023-01-15T04:18:52;7.20;99.90
8099;DHT22;4092;47.876;9.372;2023-01-15T04:21:19;7.20;99.90
8099;DHT22;4092;47.876;9.372;2023-01-15T04:23:46;7.20;99.90
8099;DHT22;4092;47.876;9.372;2023-01-15T04:26:13;7.30;99.90
8099;DHT22;4092;47.876;9.372;2023-01-15T04:28:40;7.40;99.90
8099;DHT22;4092;47.876;9.372;2023-01-15T04:31:07;7.40;99.90
8099;DHT22;4092;47.876;9.372;2023-01-15T04:33:36;7.30;99.90
8099;DHT22;4092;47.876;9.372;2023-01-15T04:36:04;7.30;99.90
8099;DHT22;4092;47.876;9.372;2023-01-15T04:38:31;7.30;99.90
8099;DHT22;4092;47.876;9.372;2023-01-15T04:41:00;7.40;99.90
8099;DHT22;4092;47.876;9.372;2023-01-15T04:43:45;7.40;99.90
8099;DHT22;4092;47.876;9.372;2023-01-15T04:46:29;7.40;99.90
8099;DHT22;4092;47.876;9.372;2023-01-15T04:48:57;7.40;99.90
8099;DHT22;4092;47.876;9.372;2023-01-15T04:51:24;7.40;99.90
8099;DHT22;4092;47.876;9.372;2023-01-15T04:53:51;7.40;99.90
8099;DHT22;4092;47.876;9.372;2023-01-15T04:56:18;7.40;99.90
8099;DHT22;4092;47.876;9.372;2023-01-15T04:58:45;7.40;99.90
8099;DHT22;4092;47.876;9.372;2023-01-15T05:01:13;7.40;99.90
8099;DHT22;4092;47.876;9.372;2023-01-15T05:03:41;7.40;99.90
8099;DHT22;4092;47.876;9.372;2023-01-15T05:06:09;7.40;99.90
8099;DHT22;4092;47.876;9.372;2023-01-15T05:08:39;7.50;99.90
8099;DHT22;4092;47.876;9.372;2023-01-15T05:11:07;7.60;99.90
8099;DHT22;4092;47.876;9.372;2023-01-15T05:13:34;7.70;99.90
8099;DHT22;4092;47.876;9.372;2023-01-15T05:16:09;7.80;99.90
8099;DHT22;4092;47.876;9.372;2023-01-15T05:18:36;7.80;99.90
8099;DHT22;4092;47.876;9.372;2023-01-15T05:21:04;7.80;99.90
8099;DHT22;4092;47.876;9.372;2023-01-15T05:23:33;7.80;99.90
8099;DHT22;4092;47.876;9.372;2023-01-15T05:26:02;7.80;99.90
8099;DHT22;4092;47.876;9.372;2023-01-15T05:28:30;7.90;99.90
8099;DHT22;4092;47.876;9.372;2023-01-15T05:30:57;8.00;99.90
8099;DHT22;4092;47.876;9.372;2023-01-15T05:33:24;7.90;99.90
8099;DHT22;4092;47.876;9.372;2023-01-15T05:35:51;7.90;99.90
8099;DHT22;4092;47.876;9.372;2023-01-15T05:38:18;7.80;99.90
8099;DHT22;4092;47.876;9.372;2023-01-15T05:40:46;7.80;99.90
8099;DHT22;4092;47.876;9.372;2023-01-15T05:43:13;7.80;99.90
8099;DHT22;4092;47.876;9.372;2023-01-15T05:45:40;7.70;99.90
8099;DHT22;4092;47.876;9.372;2023-01-15T05:48:07;7.70;99.90
8099;DHT22;4092;47.876;9.372;2023-01-15T05:50:34;7.70;99.90
8099;DHT22;4092;47.876;9.372;2023-01-15T05:53:01;7.70;99.90
8099;DHT22;4092;47.876;9.372;2023-01-15T05:55:28;7.60;99.90
8099;DHT22;4092;47.876;9.372;2023-01-15T05:57:56;7.60;99.90
8099;DHT22;4092;47.876;9.372;2023-01-15T06:00:23;7.60;99.90
8099;DHT22;4092;47.876;9.372;2023-01-15T06:02:51;7.60;99.90
8099;DHT22;4092;47.876;9.372;2023-01-15T06:05:18;7.50;99.90
8099;DHT22;4092;47.876;9.372;2023-01-15T06:07:47;7.50;99.90
8099;DHT22;4092;47.876;9.372;2023-01-15T06:10:17;7.50;99.90
8099;DHT22;4092;47.876;9.372;2023-01-15T06:12:44;7.40;99.90
8099;DHT22;4092;47.876;9.372;2023-01-15T06:15:13;7.40;99.90
8099;DHT22;4092;47.876;9.372;2023-01-15T06:17:40;7.30;99.90
8099;DHT22;4092;47.876;9.372;2023-01-15T06:20:08;7.30;99.90
8099;DHT22;4092;47.876;9.372;2023-01-15T06:22:36;7.20;99.90
8099;DHT22;4092;47.876;9.372;2023-01-15T06:25:04;7.20;99.90
8099;DHT22;4092;47.876;9.372;2023-01-15T06:27:32;7.10;99.90
8099;DHT22;4092;47.876;9.372;2023-01-15T06:29:59;7.00;99.90
8099;DHT22;4092;47.876;9.372;2023-01-15T06:32:27;6.90;99.90
8099;DHT22;4092;47.876;9.372;2023-01-15T06:34:54;6.80;99.90
8099;DHT22;4092;47.876;9.372;2023-01-15T06:37:21;6.80;99.90
8099;DHT22;4092;47.876;9.372;2023-01-15T06:39:48;6.80;99.90
8099;DHT22;4092;47.876;9.372;2023-01-15T06:42:24;6.90;99.90
8099;DHT22;4092;47.876;9.372;2023-01-15T06:45:10;6.90;99.90
8099;DHT22;4092;47.876;9.372;2023-01-15T06:47:56;6.90;99.90
8099;DHT22;4092;47.876;9.372;2023-01-15T06:50:24;7.00;99.90
8099;DHT22;4092;47.876;9.372;2023-01-15T06:52:51;7.00;99.90
8099;DHT22;4092;47.876;9.372;2023-01-15T06:55:18;6.90;99.90
8099;DHT22;4092;47.876;9.372;2023-01-15T06:57:45;6.90;99.90
8099;DHT22;4092;47.876;9.372;2023-01-15T07:00:13;6.80;99.90
8099;DHT22;4092;47.876;9.372;2023-01-15T07:02:40;6.80;99.90
8099;DHT22;4092;47.876;9.372;2023-01-15T07:05:09;6.70;99.90
8099;DHT22;4092;47.876;9.372;2023-01-15T07:07:36;6.70;99.90
8099;DHT22;4092;47.876;9.372;2023-01-15T07:10:03;6.70;99.90
8099;DHT22;4092;47.876;9.372;2023-01-15T07:12:30;6.70;99.90
8099;DHT22;4092;47.876;9.372;2023-01-15T07:14:57;6.70;99.90
8099;DHT22;4092;47.876;9.372;2023-01-15T07:17:24;6.70;99.90
8099;DHT22;4092;47.876;9.372;2023-01-15T07:19:51;6.70;99.90
8099;DHT22;4092;47.876;9.372;2023-01-15T07:22:19;6.70;99.90
8099;DHT22;4092;47.876;9.372;2023-01-15T07:24:46;6.80;99.90
8099;DHT22;4092;47.876;9.372;2023-01-15T07:27:13;6.70;99.90
8099;DHT22;4092;47.876;9.372;2023-01-15T07:29:40;6.70;99.90
8099;DHT22;4092;47.876;9.372;2023-01-15T07:32:08;6.70;99.90
8099;DHT22;4092;47.876;9.372;2023-01-15T07:34:35;6.70;99.90
8099;DHT22;4092;47.876;9.372;2023-01-15T07:37:02;6.70;99.90
8099;DHT22;4092;47.876;9.372;2023-01-15T07:39:31;6.80;99.90
8099;DHT22;4092;47.876;9.372;2023-01-15T07:41:58;6.80;99.90
8099;DHT22;4092;47.876;9.372;2023-01-15T07:44:42;6.80;99.90
8099;DHT22;4092;47.876;9.372;2023-01-15T07:47:27;6.90;99.90
8099;DHT22;4092;47.876;9.372;2023-01-15T07:50:13;6.90;99.90
8099;DHT22;4092;47.876;9.372;2023-01-15T07:52:40;7.00;99.90
8099;DHT22;4092;47.876;9.372;2023-01-15T07:55:09;7.00;99.90
8099;DHT22;4092;47.876;9.372;2023-01-15T07:57:37;7.10;99.90
8099;DHT22;4092;47.876;9.372;2023-01-15T08:00:06;7.10;99.90
8099;DHT22;4092;47.876;9.372;2023-01-15T08:02:33;7.20;99.90
8099;DHT22;4092;47.876;9.372;2023-01-15T08:05:01;7.30;99.90
8099;DHT22;4092;47.876;9.372;2023-01-15T08:07:28;7.30;99.90
8099;DHT22;4092;47.876;9.372;2023-01-15T08:09:55;7.40;99.90
8099;DHT22;4092;47.876;9.372;2023-01-15T08:12:24;7.40;99.90
8099;DHT22;4092;47.876;9.372;2023-01-15T08:15:09;7.40;99.90
8099;DHT22;4092;47.876;9.372;2023-01-15T08:17:40;7.40;99.90
8099;DHT22;4092;47.876;9.372;2023-01-15T08:20:09;7.40;99.90
8099;DHT22;4092;47.876;9.372;2023-01-15T08:22:37;7.50;99.90
8099;DHT22;4092;47.876;9.372;2023-01-15T08:25:07;7.60;99.90
8099;DHT22;4092;47.876;9.372;2023-01-15T08:27:35;7.60;99.90
8099;DHT22;4092;47.876;9.372;2023-01-15T08:30:04;7.60;99.90
8099;DHT22;4092;47.876;9.372;2023-01-15T08:32:31;7.60;99.90
8099;DHT22;4092;47.876;9.372;2023-01-15T08:34:58;7.80;99.90
8099;DHT22;4092;47.876;9.372;2023-01-15T08:37:25;7.90;99.90
8099;DHT22;4092;47.876;9.372;2023-01-15T08:39:52;8.00;99.90
8099;DHT22;4092;47.876;9.372;2023-01-15T08:42:19;8.10;99.90
8099;DHT22;4092;47.876;9.372;2023-01-15T08:44:48;8.20;99.90
8099;DHT22;4092;47.876;9.372;2023-01-15T08:47:16;8.20;99.90
8099;DHT22;4092;47.876;9.372;2023-01-15T08:49:44;8.20;99.90
8099;DHT22;4092;47.876;9.372;2023-01-15T08:52:11;8.20;99.90
8099;DHT22;4092;47.876;9.372;2023-01-15T08:54:38;8.10;99.90
8099;DHT22;4092;47.876;9.372;2023-01-15T08:57:06;8.10;99.90
8099;DHT22;4092;47.876;9.372;2023-01-15T08:59:33;8.00;99.90
8099;DHT22;4092;47.876;9.372;2023-01-15T09:02:02;8.00;99.90
8099;DHT22;4092;47.876;9.372;2023-01-15T09:04:29;8.00;99.90
8099;DHT22;4092;47.876;9.372;2023-01-15T09:06:56;8.00;99.90
8099;DHT22;4092;47.876;9.372;2023-01-15T09:09:23;8.00;99.90
8099;DHT22;4092;47.876;9.372;2023-01-15T09:11:50;8.00;99.90
8099;DHT22;4092;47.876;9.372;2023-01-15T09:14:17;7.80;99.90
8099;DHT22;4092;47.876;9.372;2023-01-15T09:16:44;7.20;99.90
8099;DHT22;4092;47.876;9.372;2023-01-15T09:19:12;6.60;99.90
8099;DHT22;4092;47.876;9.372;2023-01-15T09:21:39;6.10;99.90
8099;DHT22;4092;47.876;9.372;2023-01-15T09:24:06;5.80;99.90
8099;DHT22;4092;47.876;9.372;2023-01-15T09:26:35;5.50;99.90
8099;DHT22;4092;47.876;9.372;2023-01-15T09:29:03;5.30;99.90
8099;DHT22;4092;47.876;9.372;2023-01-15T09:31:31;5.20;99.90
8099;DHT22;4092;47.876;9.372;2023-01-15T09:33:58;5.20;99.90
8099;DHT22;4092;47.876;9.372;2023-01-15T09:36:28;5.10;99.90
8099;DHT22;4092;47.876;9.372;2023-01-15T09:38:57;5.00;99.90
8099;DHT22;4092;47.876;9.372;2023-01-15T09:41:25;5.00;99.90
8099;DHT22;4092;47.876;9.372;2023-01-15T09:44:24;4.90;99.90
8099;DHT22;4092;47.876;9.372;2023-01-15T09:47:02;4.90;99.90
8099;DHT22;4092;47.876;9.372;2023-01-15T09:49:51;5.00;99.90
8099;DHT22;4092;47.876;9.372;2023-01-15T09:52:31;5.00;99.90
8099;DHT22;4092;47.876;9.372;2023-01-15T09:55:07;4.90;99.90
8099;DHT22;4092;47.876;9.372;2023-01-15T09:57:36;4.90;99.90
8099;DHT22;4092;47.876;9.372;2023-01-15T10:00:07;4.70;99.90
8099;DHT22;4092;47.876;9.372;2023-01-15T10:02:42;4.80;99.90
8099;DHT22;4092;47.876;9.372;2023-01-15T10:05:17;4.70;99.90
8099;DHT22;4092;47.876;9.372;2023-01-15T10:07:53;4.70;99.90
8099;DHT22;4092;47.876;9.372;2023-01-15T10:10:25;4.70;99.90
8099;DHT22;4092;47.876;9.372;2023-01-15T10:12:59;4.70;99.90
8099;DHT22;4092;47.876;9.372;2023-01-15T10:15:34;4.60;99.90
8099;DHT22;4092;47.876;9.372;2023-01-15T10:18:03;4.70;99.90
8099;DHT22;4092;47.876;9.372;2023-01-15T10:20:47;4.70;99.90
8099;DHT22;4092;47.876;9.372;2023-01-15T10:23:29;4.60;99.90
8099;DHT22;4092;47.876;9.372;2023-01-15T10:26:02;4.60;99.90
8099;DHT22;4092;47.876;9.372;2023-01-15T10:28:39;4.60;99.90
8099;DHT22;4092;47.876;9.372;2023-01-15T10:31:16;4.60;99.90
8099;DHT22;4092;47.876;9.372;2023-01-15T10:33:59;4.60;99.90
8099;DHT22;4092;47.876;9.372;2023-01-15T10:36:32;4.60;99.90
8099;DHT22;4092;47.876;9.372;2023-01-15T10:39:13;4.60;99.90
8099;DHT22;4092;47.876;9.372;2023-01-15T10:41:56;4.60;99.90
8099;DHT22;4092;47.876;9.372;2023-01-15T10:44:36;4.50;99.90
8099;DHT22;4092;47.876;9.372;2023-01-15T10:47:11;4.50;99.90
8099;DHT22;4092;47.876;9.372;2023-01-15T10:49:40;4.40;99.90
8099;DHT22;4092;47.876;9.372;2023-01-15T10:52:16;4.50;99.90
8099;DHT22;4092;47.876;9.372;2023-01-15T10:54:49;4.40;99.90
8099;DHT22;4092;47.876;9.372;2023-01-15T10:57:22;4.40;99.90
8099;DHT22;4092;47.876;9.372;2023-01-15T10:59:56;4.40;99.90
8099;DHT22;4092;47.876;9.372;2023-01-15T11:02:27;4.50;99.90
8099;DHT22;4092;47.876;9.372;2023-01-15T11:04:55;4.40;99.90
8099;DHT22;4092;47.876;9.372;2023-01-15T11:07:27;4.40;99.90
8099;DHT22;4092;47.876;9.372;2023-01-15T11:10:02;4.40;99.90
8099;DHT22;4092;47.876;9.372;2023-01-15T11:12:30;4.40;99.90
8099;DHT22;4092;47.876;9.372;2023-01-15T11:15:22;4.40;99.90
8099;DHT22;4092;47.876;9.372;2023-01-15T11:18:13;4.40;99.90
8099;DHT22;4092;47.876;9.372;2023-01-15T11:20:58;4.40;99.90
8099;DHT22;4092;47.876;9.372;2023-01-15T11:23:26;4.40;99.90
8099;DHT22;4092;47.876;9.372;2023-01-15T11:25:55;4.40;99.90
8099;DHT22;4092;47.876;9.372;2023-01-15T11:28:31;4.30;99.90
8099;DHT22;4092;47.876;9.372;2023-01-15T11:31:00;4.30;99.90
8099;DHT22;4092;47.876;9.372;2023-01-15T11:33:28;4.20;99.90
8099;DHT22;4092;47.876;9.372;2023-01-15T11:35:58;4.10;99.90
8099;DHT22;4092;47.876;9.372;2023-01-15T11:38:31;3.90;99.90
8099;DHT22;4092;47.876;9.372;2023-01-15T11:41:04;3.90;99.90
8099;DHT22;4092;47.876;9.372;2023-01-15T11:43:31;3.80;99.90
8099;DHT22;4092;47.876;9.372;2023-01-15T11:46:26;3.90;99.90
8099;DHT22;4092;47.876;9.372;2023-01-15T11:49:15;3.90;99.90
8099;DHT22;4092;47.876;9.372;2023-01-15T11:52:00;3.80;99.90
8099;DHT22;4092;47.876;9.372;2023-01-15T11:54:30;3.80;99.90
8099;DHT22;4092;47.876;9.372;2023-01-15T11:56:59;3.70;99.90
8099;DHT22;4092;47.876;9.372;2023-01-15T11:59:26;3.60;99.90
8099;DHT22;4092;47.876;9.372;2023-01-15T12:01:54;3.60;99.90
8099;DHT22;4092;47.876;9.372;2023-01-15T12:04:36;3.50;99.90
8099;DHT22;4092;47.876;9.372;2023-01-15T12:07:05;3.50;99.90
8099;DHT22;4092;47.876;9.372;2023-01-15T12:10:10;3.50;99.90
8099;DHT22;4092;47.876;9.372;2023-01-15T12:12:49;3.50;99.90
8099;DHT22;4092;47.876;9.372;2023-01-15T12:15:42;3.50;99.90
8099;DHT22;4092;47.876;9.372;2023-01-15T12:18:39;3.40;99.90
8099;DHT22;4092;47.876;9.372;2023-01-15T12:21:22;3.30;99.90
8099;DHT22;4092;47.876;9.372;2023-01-15T12:24:06;3.30;99.90
8099;DHT22;4092;47.876;9.372;2023-01-15T12:26:47;3.20;99.90
8099;DHT22;4092;47.876;9.372;2023-01-15T12:29:21;3.10;99.90
8099;DHT22;4092;47.876;9.372;2023-01-15T12:31:54;3.00;99.90
8099;DHT22;4092;47.876;9.372;2023-01-15T12:34:28;2.90;99.90
8099;DHT22;4092;47.876;9.372;2023-01-15T12:37:05;2.80;99.90
8099;DHT22;4092;47.876;9.372;2023-01-15T12:39:44;2.70;99.90
8099;DHT22;4092;47.876;9.372;2023-01-15T12:42:17;2.60;99.90
8099;DHT22;4092;47.876;9.372;2023-01-15T12:45:08;2.50;99.90
8099;DHT22;4092;47.876;9.372;2023-01-15T12:47:41;2.50;99.90
8099;DHT22;4092;47.876;9.372;2023-01-15T12:50:22;2.50;99.90
8099;DHT22;4092;47.876;9.372;2023-01-15T12:52:58;2.40;99.90
8099;DHT22;4092;47.876;9.372;2023-01-15T12:55:29;2.40;99.90
8099;DHT22;4092;47.876;9.372;2023-01-15T12:57:59;2.40;99.90
8099;DHT22;4092;47.876;9.372;2023-01-15T13:00:31;2.30;99.90
8099;DHT22;4092;47.876;9.372;2023-01-15T13:03:13;2.30;99.90
8099;DHT22;4092;47.876;9.372;2023-01-15T13:05:44;2.20;99.90
8099;DHT22;4092;47.876;9.372;2023-01-15T13:08:18;2.20;99.90
8099;DHT22;4092;47.876;9.372;2023-01-15T13:10:48;2.20;99.90
8099;DHT22;4092;47.876;9.372;2023-01-15T13:13:17;2.30;99.90
8099;DHT22;4092;47.876;9.372;2023-01-15T13:15:58;2.30;99.90
8099;DHT22;4092;47.876;9.372;2023-01-15T13:18:33;2.30;99.90
8099;DHT22;4092;47.876;9.372;2023-01-15T13:21:04;2.20;99.90
8099;DHT22;4092;47.876;9.372;2023-01-15T13:23:43;2.10;99.90
8099;DHT22;4092;47.876;9.372;2023-01-15T13:26:21;2.10;99.90
8099;DHT22;4092;47.876;9.372;2023-01-15T13:29:01;2.00;99.90
8099;DHT22;4092;47.876;9.372;2023-01-15T13:31:50;2.00;99.90
8099;DHT22;4092;47.876;9.372;2023-01-15T13:34:25;2.00;99.90
8099;DHT22;4092;47.876;9.372;2023-01-15T13:36:55;2.00;99.90
8099;DHT22;4092;47.876;9.372;2023-01-15T13:39:27;2.00;99.90
8099;DHT22;4092;47.876;9.372;2023-01-15T13:41:59;1.90;99.90
8099;DHT22;4092;47.876;9.372;2023-01-15T13:44:46;1.80;99.90
8099;DHT22;4092;47.876;9.372;2023-01-15T13:47:20;1.80;99.90
8099;DHT22;4092;47.876;9.372;2023-01-15T13:49:51;1.80;99.90
8099;DHT22;4092;47.876;9.372;2023-01-15T13:52:22;1.70;99.90
8099;DHT22;4092;47.876;9.372;2023-01-15T13:54:51;1.70;99.90
8099;DHT22;4092;47.876;9.372;2023-01-15T13:57:24;1.70;99.90
8099;DHT22;4092;47.876;9.372;2023-01-15T13:59:51;1.70;99.90
8099;DHT22;4092;47.876;9.372;2023-01-15T14:02:29;1.80;99.90
8099;DHT22;4092;47.876;9.372;2023-01-15T14:04:56;1.70;99.90
8099;DHT22;4092;47.876;9.372;2023-01-15T14:07:32;1.70;99.90
8099;DHT22;4092;47.876;9.372;2023-01-15T14:10:32;1.70;99.90
8099;DHT22;4092;47.876;9.372;2023-01-15T14:13:13;1.70;99.90
8099;DHT22;4092;47.876;9.372;2023-01-15T14:15:48;1.70;99.90
8099;DHT22;4092;47.876;9.372;2023-01-15T14:18:43;1.60;99.90
8099;DHT22;4092;47.876;9.372;2023-01-15T14:21:23;1.60;99.90
8099;DHT22;4092;47.876;9.372;2023-01-15T14:27:06;1.60;99.90
8099;DHT22;4092;47.876;9.372;2023-01-15T14:30:03;1.60;99.90
8099;DHT22;4092;47.876;9.372;2023-01-15T14:32:47;1.60;99.90
8099;DHT22;4092;47.876;9.372;2023-01-15T14:35:20;1.60;99.90
8099;DHT22;4092;47.876;9.372;2023-01-15T14:37:51;1.60;99.90
8099;DHT22;4092;47.876;9.372;2023-01-15T14:40:21;1.60;99.90
8099;DHT22;4092;47.876;9.372;2023-01-15T14:42:51;1.60;99.90
8099;DHT22;4092;47.876;9.372;2023-01-15T14:45:28;1.60;99.90
8099;DHT22;4092;47.876;9.372;2023-01-15T14:47:57;1.60;99.90
8099;DHT22;4092;47.876;9.372;2023-01-15T14:50:35;1.60;99.90
8099;DHT22;4092;47.876;9.372;2023-01-15T14:53:27;1.60;99.90
8099;DHT22;4092;47.876;9.372;2023-01-15T14:55:58;1.60;99.90
8099;DHT22;4092;47.876;9.372;2023-01-15T14:58:44;1.60;99.90
8099;DHT22;4092;47.876;9.372;2023-01-15T15:01:34;1.60;99.90
8099;DHT22;4092;47.876;9.372;2023-01-15T15:04:17;1.60;99.90
8099;DHT22;4092;47.876;9.372;2023-01-15T15:06:49;1.60;99.90
8099;DHT22;4092;47.876;9.372;2023-01-15T15:09:26;1.60;99.90
8099;DHT22;4092;47.876;9.372;2023-01-15T15:12:01;1.60;99.90
8099;DHT22;4092;47.876;9.372;2023-01-15T15:14:52;1.50;99.90
8099;DHT22;4092;47.876;9.372;2023-01-15T15:17:29;1.60;99.90
8099;DHT22;4092;47.876;9.372;2023-01-15T15:20:06;1.60;99.90
8099;DHT22;4092;47.876;9.372;2023-01-15T15:22:43;1.60;99.90
8099;DHT22;4092;47.876;9.372;2023-01-15T15:25:20;1.60;99.90
8099;DHT22;4092;47.876;9.372;2023-01-15T15:27:47;1.60;99.90
8099;DHT22;4092;47.876;9.372;2023-01-15T15:30:15;1.60;99.90
8099;DHT22;4092;47.876;9.372;2023-01-15T15:32:45;1.60;99.90
8099;DHT22;4092;47.876;9.372;2023-01-15T15:35:23;1.60;99.90
8099;DHT22;4092;47.876;9.372;2023-01-15T15:37:53;1.60;99.90
8099;DHT22;4092;47.876;9.372;2023-01-15T15:40:24;1.60;99.90
8099;DHT22;4092;47.876;9.372;2023-01-15T15:43:02;1.60;99.90
8099;DHT22;4092;47.876;9.372;2023-01-15T15:45:51;1.50;99.90
8099;DHT22;4092;47.876;9.372;2023-01-15T15:48:36;1.60;99.90
8099;DHT22;4092;47.876;9.372;2023-01-15T15:51:26;1.60;99.90
8099;DHT22;4092;47.876;9.372;2023-01-15T15:54:09;1.60;99.90
8099;DHT22;4092;47.876;9.372;2023-01-15T15:56:38;1.60;99.90
8099;DHT22;4092;47.876;9.372;2023-01-15T15:59:05;1.50;99.90
8099;DHT22;4092;47.876;9.372;2023-01-15T16:01:36;1.60;99.90
8099;DHT22;4092;47.876;9.372;2023-01-15T16:04:04;1.50;99.90
8099;DHT22;4092;47.876;9.372;2023-01-15T16:06:31;1.50;99.90
8099;DHT22;4092;47.876;9.372;2023-01-15T16:08:59;1.50;99.90
8099;DHT22;4092;47.876;9.372;2023-01-15T16:11:31;1.50;99.90
8099;DHT22;4092;47.876;9.372;2023-01-15T16:14:02;1.50;99.90
8099;DHT22;4092;47.876;9.372;2023-01-15T16:16:30;1.50;99.90
8099;DHT22;4092;47.876;9.372;2023-01-15T16:18:59;1.40;99.90
8099;DHT22;4092;47.876;9.372;2023-01-15T16:21:27;1.50;99.90
8099;DHT22;4092;47.876;9.372;2023-01-15T16:23:55;1.40;99.90
8099;DHT22;4092;47.876;9.372;2023-01-15T16:26:28;1.40;99.90
8099;DHT22;4092;47.876;9.372;2023-01-15T16:29:00;1.40;99.90
8099;DHT22;4092;47.876;9.372;2023-01-15T16:31:32;1.40;99.90
8099;DHT22;4092;47.876;9.372;2023-01-15T16:33:59;1.40;99.90
8099;DHT22;4092;47.876;9.372;2023-01-15T16:36:27;1.40;99.90
8099;DHT22;4092;47.876;9.372;2023-01-15T16:38:54;1.40;99.90
8099;DHT22;4092;47.876;9.372;2023-01-15T16:41:24;1.40;99.90
8099;DHT22;4092;47.876;9.372;2023-01-15T16:44:00;1.30;99.90
8099;DHT22;4092;47.876;9.372;2023-01-15T16:46:30;1.30;99.90
8099;DHT22;4092;47.876;9.372;2023-01-15T16:49:21;1.30;99.90
8099;DHT22;4092;47.876;9.372;2023-01-15T16:51:52;1.30;99.90
8099;DHT22;4092;47.876;9.372;2023-01-15T16:54:46;1.30;99.90